Airfield :
LOGIN :

Register | Disclaimer

   EN    FR    IT 

 










Legend :    VFR   Marginal VFR   IFR   Intensive IFR   Very Intensive IFR
Visi :
Ceiling :
>= 8 km
>= 3000ft
5 to 8 km
1000 to 3000 ft
1500m to 5 km
500 to 1000 ft
800 to 1500m
200 to 500 ft
< 800m
< 200 ft
Symbols :   Thunderstorms  Fog  Heavy snow  Heavy precipitations  Wind > 20 kt
SIGMETs :     Misc.  Thunderstorms  Icing  Turbulence  Mountain Waves  Volcanic Ashes







- Airport Elevation : 580 ft
- Download approach charts


LFOA - Avord

CURRENT METAR :
  • 112030Z AUTO 10004KT 2500 BR OVC002 03/03 Q1023 TEMPO 0300 FZFG VV///

EXPIRED METARs :
  • 112000Z AUTO 07004KT 6000 BKN005 03/02 Q1023 TEMPO 0300 FZFG VV///
  • 111930Z AUTO 04004KT 4500 BR OVC006 03/03 Q1023 TEMPO 0300 FZFG VV///
  • 111900Z AUTO 09003KT 8000 OVC005 04/03 Q1024 BECMG 3000 BR
  • 111830Z AUTO 08004KT 8000 OVC005 04/04 Q1024 BECMG 3000 BR
  • 111800Z AUTO VRB02KT 8000 BKN005 OVC010 04/04 Q1024 BECMG 3000 BR

TAF TAF LFOA
Valid from the 11 at 21:00 until the 12 at 21:00 UTC


112000Z 1121/1221 06005KT 4000 BR SCT003 OVC005
TEMPO 1121/1208 0800 FG VV///
PROB40
TEMPO 1122/1208 0300 FZFG
BECMG 1209/1211 8000 NSW SCT012
No reported NOTAMs for that airfield.



MET'MAP, your aeronautical weather chart ! - Copyright ORBIFLY December 2007 - Disclaimer

ORBIFLY MET'MAP TEAM :

Programming & Development : Alexandra Zaïnal
Concept & Development : Baudouin d'Aumeries
Co-Development & Prog : Marc-Olivier Méhu
Technical & hardware support : Manuel Goepfert

Contact : metmap@orbifly.com




SOURCES & CREDITS :

   NOAA